Photometre #385[Polarized_P] OHP_OBSERVATOIRE AOT

File : 20190928_385.hum

28/09/2019,06:20:50,TEMP=15.2,BA=5.64,STAT.A=8.5,ExtBa=13.77
28/09/2019,06:24:27,TEMP=15.6,BA=5.64,STAT.A=8.5,ExtBa=13.58
28/09/2019,06:28:39,TEMP=15.8,BA=5.64,STAT.A=8.5,ExtBa=13.56
28/09/2019,06:33:41,TEMP=16.0,BA=5.60,STAT.A=8.5,ExtBa=13.58
28/09/2019,06:39:43,TEMP=16.4,BA=5.60,STAT.A=8.5,ExtBa=13.61
28/09/2019,06:47:12,TEMP=16.8,BA=5.60,STAT.A=8.5,ExtBa=13.62
28/09/2019,06:56:40,TEMP=17.3,BA=5.64,STAT.B=8.5,ExtBa=13.66
28/09/2019,07:03:16,TEMP=18.1,BA=5.60,STAT.A=8.5,ExtBa=13.14
28/09/2019,07:06:18,TEMP=18.2,BA=5.60,STAT.A=8.5,ExtBa=13.29
28/09/2019,07:12:03,TEMP=18.3,BA=5.64,STAT.A=8.5,ExtBa=13.46
28/09/2019,07:18:36,TEMP=18.8,BA=5.64,STAT.A=8.5,ExtBa=13.56
28/09/2019,07:26:08,TEMP=19.2,BA=5.60,STAT.C=8.5,ExtBa=13.61
28/09/2019,07:38:52,TEMP=21.2,BA=5.56,STAT.A=8.5,ExtBa=13.14
28/09/2019,07:45:22,TEMP=20.5,BA=5.56,STAT.A=8.5,ExtBa=13.43
28/09/2019,07:57:57,TEMP=21.4,BA=5.64,STAT.A=9.0,ExtBa=13.65
28/09/2019,08:13:32,TEMP=22.2,BA=5.64,STAT.A=9.0,ExtBa=13.72
28/09/2019,08:28:29,TEMP=22.0,BA=5.64,STAT.F
28/09/2019,08:43:28,TEMP=22.8,BA=5.52,STAT.D=8.5,ExtBa=13.29
28/09/2019,08:58:28,TEMP=22.6,BA=5.64,STAT.D=9.0,ExtBa=13.63
28/09/2019,09:13:28,TEMP=23.0,BA=5.64,STAT.D=9.0,ExtBa=13.68
28/09/2019,09:28:30,TEMP=23.4,BA=5.64,STAT.F
28/09/2019,09:52:18,TEMP=23.6,BA=5.56,STAT.D=9.0,ExtBa=13.61
28/09/2019,09:58:28,TEMP=23.5,BA=5.56,STAT.D=9.0,ExtBa=13.63
28/09/2019,10:13:28,TEMP=23.5,BA=5.64,STAT.D=9.0,ExtBa=13.71
28/09/2019,10:28:30,TEMP=23.9,BA=5.64,STAT.F
28/09/2019,10:43:28,TEMP=24.3,BA=5.52,STAT.D=9.0,ExtBa=13.33
28/09/2019,10:58:28,TEMP=24.6,BA=5.64,STAT.D=9.0,ExtBa=13.66
28/09/2019,11:13:28,TEMP=24.8,BA=5.64,STAT.D=9.0,ExtBa=13.70
28/09/2019,11:28:30,TEMP=24.9,BA=5.64,STAT.F
28/09/2019,11:43:28,TEMP=25.0,BA=5.52,STAT.D=9.0,ExtBa=13.33
28/09/2019,11:58:28,TEMP=24.8,BA=5.64,STAT.D=9.0,ExtBa=13.65
28/09/2019,12:13:28,TEMP=25.2,BA=5.64,STAT.D=9.0,ExtBa=13.70
28/09/2019,12:28:30,TEMP=25.6,BA=5.64,STAT.F
28/09/2019,12:43:28,TEMP=25.8,BA=5.52,STAT.D=9.0,ExtBa=13.33
28/09/2019,12:58:28,TEMP=25.9,BA=5.64,STAT.D=9.0,ExtBa=13.64
28/09/2019,13:13:28,TEMP=25.7,BA=5.64,STAT.D=9.0,ExtBa=13.69
28/09/2019,13:28:30,TEMP=26.0,BA=5.64,STAT.F
28/09/2019,13:43:28,TEMP=26.5,BA=5.52,STAT.D=9.0,ExtBa=13.32
28/09/2019,13:58:28,TEMP=26.0,BA=5.64,STAT.D=9.0,ExtBa=13.64
28/09/2019,14:13:28,TEMP=26.1,BA=5.64,STAT.D=9.0,ExtBa=13.68
28/09/2019,14:28:29,TEMP=25.8,BA=5.64,STAT.F
28/09/2019,14:43:26,TEMP=25.8,BA=5.52,STAT.A=9.0,ExtBa=13.31
28/09/2019,14:59:01,TEMP=25.7,BA=5.64,STAT.A=9.0,ExtBa=13.65
28/09/2019,15:11:36,TEMP=25.5,BA=5.64,STAT.A=9.0,ExtBa=13.68
28/09/2019,15:22:01,TEMP=25.0,BA=5.64,STAT.A=9.0,ExtBa=13.68
28/09/2019,15:30:50,TEMP=24.7,BA=5.64,STAT.C=9.0,ExtBa=13.67
28/09/2019,15:43:17,TEMP=25.3,BA=5.52,STAT.A=8.5,ExtBa=13.14
28/09/2019,15:45:06,TEMP=24.9,BA=5.52,STAT.A=8.5,ExtBa=13.19
28/09/2019,15:50:40,TEMP=24.0,BA=5.64,STAT.A=9.0,ExtBa=13.42
28/09/2019,15:55:45,TEMP=23.9,BA=5.64,STAT.A=9.0,ExtBa=13.50
28/09/2019,16:00:18,TEMP=23.7,BA=5.64,STAT.B=9.0,ExtBa=13.53
28/09/2019,16:09:46,TEMP=23.2,BA=5.64,STAT.A=9.0,ExtBa=13.31
28/09/2019,16:17:14,TEMP=22.8,BA=5.56,STAT.A=9.0,ExtBa=13.51
28/09/2019,16:23:16,TEMP=22.5,BA=5.64,STAT.A=9.0,ExtBa=13.57
28/09/2019,16:28:17,TEMP=22.4,BA=5.64,STAT.A=9.0,ExtBa=13.57
28/09/2019,16:32:30,TEMP=22.2,BA=5.60,STAT.A=9.0,ExtBa=13.55
28/09/2019,16:39:00,TEMP=21.9,BA=5.60,STAT.A=9.0,ExtBa=13.59